Time;durP1;ratioP1;P1;durP2;ratioP2;P2;SDS_P1;SDS_P2;PMS_P1;PMS_P2;Temp;Humidity;BMP_temperature;BMP_pressure;BME280_temperature;BME280_humidity;BME280_pressure;Samples;Min_cycle;Max_cycle;Signal;HPM_P1;HPM_P2
2022/01/06 00:01:27;;;;;;;9.07;5.80;;;6.40;99.90;;;;;;4996978;28;20220;-82
2022/01/06 00:03:54;;;;;;;10.40;5.15;;;6.40;99.90;;;;;;5012382;28;20169;-80
2022/01/06 00:06:23;;;;;;;11.00;5.65;;;6.40;99.90;;;;;;5011849;28;20250;-81
2022/01/06 00:08:55;;;;;;;12.68;5.90;;;6.40;99.90;;;;;;5029233;28;20212;-81
2022/01/06 00:11:21;;;;;;;8.38;4.10;;;6.40;99.90;;;;;;5026093;28;20178;-81
2022/01/06 00:14:03;;;;;;;7.00;3.95;;;6.40;99.90;;;;;;5006431;28;20178;-79
2022/01/06 00:24:50;;;;;;;8.98;4.15;;;6.30;99.90;;;;;;5002517;28;20181;-78
2022/01/06 00:27:17;;;;;;;6.28;4.00;;;6.30;99.90;;;;;;5001157;28;20202;-79
2022/01/06 00:29:47;;;;;;;8.57;4.25;;;6.30;99.90;;;;;;5004830;28;20310;-79
2022/01/06 00:32:30;;;;;;;7.82;3.65;;;6.20;99.90;;;;;;5029951;28;20704;-78
2022/01/06 00:35:01;;;;;;;8.13;3.63;;;6.20;99.90;;;;;;5030855;28;20166;-79
2022/01/06 00:37:28;;;;;;;8.48;3.70;;;6.20;99.90;;;;;;5024876;28;20201;-77
2022/01/06 00:39:57;;;;;;;13.48;4.05;;;6.20;99.90;;;;;;5004018;28;20177;-77
2022/01/06 00:42:25;;;;;;;7.35;4.35;;;6.20;99.90;;;;;;5023204;28;20172;-77
2022/01/06 00:44:57;;;;;;;7.50;3.55;;;6.20;99.90;;;;;;5005015;28;20161;-79
2022/01/06 00:47:55;;;;;;;9.55;4.10;;;6.10;99.90;;;;;;5026286;28;20220;-79
2022/01/06 00:50:26;;;;;;;11.20;3.03;;;6.10;99.90;;;;;;5037941;28;20173;-79
2022/01/06 00:52:58;;;;;;;7.88;3.00;;;6.10;99.90;;;;;;5038902;28;20188;-79
2022/01/06 00:55:24;;;;;;;10.23;2.95;;;6.20;99.90;;;;;;5058879;28;20184;-79
2022/01/06 00:57:49;;;;;;;7.60;2.93;;;6.10;99.90;;;;;;5059586;28;20181;-80
2022/01/06 01:00:15;;;;;;;8.80;2.93;;;6.10;99.90;;;;;;5058587;28;20576;-79
2022/01/06 01:02:41;;;;;;;6.70;2.03;;;6.10;99.90;;;;;;5042278;28;20165;-79
2022/01/06 01:05:07;;;;;;;9.07;3.33;;;6.10;99.90;;;;;;5033570;28;20650;-80
2022/01/06 01:07:33;;;;;;;4.90;2.05;;;6.10;99.90;;;;;;5046852;28;20186;-80
2022/01/06 01:09:58;;;;;;;6.43;2.50;;;6.10;99.90;;;;;;5020517;28;20633;-79
2022/01/06 01:12:26;;;;;;;7.23;2.27;;;6.20;99.90;;;;;;5054169;28;20173;-79
2022/01/06 01:14:59;;;;;;;5.13;2.05;;;6.20;99.90;;;;;;5048723;28;20170;-81
2022/01/06 01:17:27;;;;;;;5.80;1.77;;;6.20;99.90;;;;;;5030160;28;20910;-80
2022/01/06 01:19:53;;;;;;;6.40;2.50;;;6.30;99.90;;;;;;5031721;28;20189;-81
2022/01/06 01:22:19;;;;;;;5.97;2.78;;;6.30;99.90;;;;;;5052271;28;20169;-80
2022/01/06 01:24:45;;;;;;;9.50;3.53;;;6.30;99.90;;;;;;5057007;28;20172;-80
2022/01/06 01:27:11;;;;;;;15.43;3.33;;;6.30;99.90;;;;;;5054001;28;20603;-80
2022/01/06 01:29:51;;;;;;;9.00;2.60;;;6.30;99.90;;;;;;5034286;28;20208;-80
2022/01/06 01:32:16;;;;;;;6.93;1.50;;;6.30;99.90;;;;;;5034844;28;20176;-81
2022/01/06 01:34:45;;;;;;;7.40;1.92;;;6.30;99.90;;;;;;5051899;28;20173;-81
2022/01/06 01:37:11;;;;;;;14.10;2.30;;;6.20;99.90;;;;;;5052680;28;20193;-82
2022/01/06 01:39:37;;;;;;;4.17;2.03;;;6.20;99.90;;;;;;5034570;28;20544;-81
2022/01/06 01:42:03;;;;;;;7.40;1.80;;;6.20;99.90;;;;;;5051510;28;20170;-80
2022/01/06 01:44:28;;;;;;;7.93;2.17;;;6.20;99.90;;;;;;5054067;28;20180;-81
2022/01/06 01:47:03;;;;;;;7.87;1.73;;;6.20;99.90;;;;;;5053599;28;20619;-80
2022/01/06 01:49:46;;;;;;;8.98;2.30;;;6.10;99.90;;;;;;5053639;28;20176;-81
2022/01/06 01:52:12;;;;;;;22.45;2.80;;;6.10;99.90;;;;;;5035335;28;20207;-80
2022/01/06 01:54:37;;;;;;;11.83;2.40;;;6.10;99.90;;;;;;5017452;28;20253;-80
2022/01/06 01:57:03;;;;;;;7.40;1.70;;;6.10;99.90;;;;;;5051424;28;20177;-80
2022/01/06 01:59:29;;;;;;;6.90;1.80;;;6.00;99.90;;;;;;5050908;28;20196;-81
2022/01/06 02:01:55;;;;;;;6.80;1.63;;;6.00;99.90;;;;;;5051944;28;20568;-80
2022/01/06 02:04:20;;;;;;;5.30;2.03;;;6.00;99.90;;;;;;5051342;28;20177;-80
2022/01/06 02:06:46;;;;;;;6.00;1.77;;;6.00;99.90;;;;;;5048914;28;20216;-79
2022/01/06 02:09:12;;;;;;;6.67;1.30;;;6.00;99.90;;;;;;5021391;28;20178;-79
2022/01/06 02:11:37;;;;;;;5.93;1.77;;;6.00;99.90;;;;;;5036674;28;20269;-79
2022/01/06 02:14:05;;;;;;;6.40;1.70;;;6.00;99.90;;;;;;5035134;28;20184;-79
2022/01/06 02:16:32;;;;;;;12.05;2.55;;;6.00;99.90;;;;;;5045419;28;20204;-79
2022/01/06 02:18:57;;;;;;;10.45;2.70;;;6.00;99.90;;;;;;5040817;28;20212;-79
2022/01/06 02:21:23;;;;;;;11.93;2.27;;;6.00;99.90;;;;;;5040234;28;20701;-79
2022/01/06 02:23:49;;;;;;;3.90;1.93;;;5.90;99.90;;;;;;5040601;28;20573;-79
2022/01/06 02:26:15;;;;;;;11.43;2.73;;;5.90;99.90;;;;;;5020478;28;20240;-79
2022/01/06 02:28:42;;;;;;;6.82;2.00;;;5.90;99.90;;;;;;5022878;28;20616;-80
2022/01/06 02:31:08;;;;;;;13.88;2.80;;;5.90;99.90;;;;;;5026113;28;20166;-80
2022/01/06 02:33:35;;;;;;;5.80;2.70;;;5.90;99.90;;;;;;5044594;28;20165;-80
2022/01/06 02:36:01;;;;;;;11.45;2.33;;;5.90;99.90;;;;;;5044672;28;20225;-80
2022/01/06 02:38:26;;;;;;;7.80;2.27;;;5.90;99.90;;;;;;5024290;28;20250;-81
2022/01/06 02:40:52;;;;;;;7.10;1.90;;;5.90;99.90;;;;;;5040696;28;20173;-80
2022/01/06 02:43:20;;;;;;;8.27;2.42;;;5.90;99.90;;;;;;5003763;28;20181;-80
2022/01/06 02:45:46;;;;;;;6.80;1.90;;;5.90;99.90;;;;;;5022671;28;20189;-80
2022/01/06 02:48:14;;;;;;;6.30;2.10;;;5.90;99.90;;;;;;5039325;28;20186;-81
2022/01/06 02:50:43;;;;;;;9.55;2.42;;;5.90;99.90;;;;;;5040727;28;20170;-81
2022/01/06 02:53:11;;;;;;;7.60;2.20;;;6.00;99.90;;;;;;5043966;28;20180;-80
2022/01/06 02:55:40;;;;;;;7.95;2.58;;;6.00;99.90;;;;;;5045507;28;20656;-79
2022/01/06 02:58:06;;;;;;;6.22;2.22;;;6.00;99.90;;;;;;5029142;28;20200;-80
2022/01/06 03:00:31;;;;;;;7.80;2.80;;;6.10;99.90;;;;;;5032119;28;20181;-80
2022/01/06 03:02:57;;;;;;;9.73;2.70;;;6.10;99.90;;;;;;5031716;28;20177;-80
2022/01/06 03:05:23;;;;;;;6.73;1.80;;;6.10;99.90;;;;;;5032973;28;20177;-80
2022/01/06 03:07:48;;;;;;;10.57;2.47;;;6.10;99.90;;;;;;5047917;28;20190;-80
2022/01/06 03:10:16;;;;;;;7.43;1.90;;;6.10;99.90;;;;;;5034450;28;20559;-80
2022/01/06 03:12:44;;;;;;;6.30;1.70;;;6.10;99.90;;;;;;5038119;28;20219;-80
2022/01/06 03:15:12;;;;;;;7.95;2.35;;;6.20;99.90;;;;;;5038294;28;20742;-79
2022/01/06 03:17:40;;;;;;;7.60;2.40;;;6.20;99.90;;;;;;5025831;28;20272;-80
2022/01/06 03:20:07;;;;;;;8.40;2.13;;;6.20;99.90;;;;;;5051020;28;20166;-80
2022/01/06 03:22:33;;;;;;;11.70;1.77;;;6.20;99.90;;;;;;5050043;28;20166;-80
2022/01/06 03:24:59;;;;;;;4.43;1.50;;;6.20;99.90;;;;;;5032378;28;20347;-80
2022/01/06 03:27:25;;;;;;;10.02;2.40;;;6.30;99.90;;;;;;5051979;28;20628;-80
2022/01/06 03:29:51;;;;;;;8.67;2.37;;;6.30;99.90;;;;;;5051713;28;20169;-80
2022/01/06 03:32:17;;;;;;;7.77;1.67;;;6.30;99.90;;;;;;5032030;28;20239;-81
2022/01/06 03:34:44;;;;;;;7.53;1.90;;;6.30;99.90;;;;;;5044792;28;20192;-80
2022/01/06 03:37:11;;;;;;;5.85;1.85;;;6.40;99.90;;;;;;5031674;28;20170;-80
2022/01/06 03:39:36;;;;;;;6.53;2.00;;;6.40;99.90;;;;;;5031671;28;20165;-80
2022/01/06 03:42:03;;;;;;;6.93;2.20;;;6.40;99.90;;;;;;5050294;28;20234;-80
2022/01/06 03:44:29;;;;;;;5.25;1.55;;;6.40;99.90;;;;;;5051443;28;20204;-80
2022/01/06 03:46:55;;;;;;;6.28;1.90;;;6.40;99.90;;;;;;5051832;28;20201;-80
2022/01/06 03:49:21;;;;;;;6.13;2.17;;;6.50;99.90;;;;;;5028553;28;20228;-80
2022/01/06 03:51:47;;;;;;;6.43;2.55;;;6.40;99.90;;;;;;5052027;28;20268;-80
2022/01/06 03:54:14;;;;;;;8.65;2.35;;;6.50;99.90;;;;;;5009077;28;20173;-78
2022/01/06 03:56:39;;;;;;;8.40;2.03;;;6.50;99.90;;;;;;5014341;28;20207;-79
2022/01/06 03:59:05;;;;;;;9.03;2.33;;;6.50;99.90;;;;;;5031821;28;20204;-79
2022/01/06 04:01:31;;;;;;;10.80;2.73;;;6.50;99.90;;;;;;5013819;28;20268;-78
2022/01/06 04:03:57;;;;;;;13.10;2.72;;;6.50;99.90;;;;;;5014148;28;20193;-79
2022/01/06 04:06:23;;;;;;;7.93;1.70;;;6.50;99.90;;;;;;5014039;28;20689;-79
2022/01/06 04:08:49;;;;;;;11.97;2.10;;;6.60;99.90;;;;;;5031577;28;20232;-78
2022/01/06 04:11:15;;;;;;;4.37;1.67;;;6.60;99.90;;;;;;5031405;28;20158;-79
2022/01/06 04:13:41;;;;;;;8.10;2.60;;;6.60;99.90;;;;;;5031603;28;21096;-79
2022/01/06 04:16:09;;;;;;;8.43;2.20;;;6.60;99.90;;;;;;5035473;28;20170;-79
2022/01/06 04:18:36;;;;;;;8.15;2.40;;;6.60;99.90;;;;;;5017774;28;20607;-79
2022/01/06 04:21:03;;;;;;;7.80;2.28;;;6.60;99.90;;;;;;5017654;28;20177;-78
2022/01/06 04:23:28;;;;;;;4.80;1.27;;;6.50;99.90;;;;;;5035370;28;20200;-79
2022/01/06 04:25:54;;;;;;;5.38;1.95;;;6.50;99.90;;;;;;5018958;28;20198;-79
2022/01/06 04:28:20;;;;;;;8.07;1.70;;;6.40;99.90;;;;;;5019135;28;20197;-78
2022/01/06 04:30:46;;;;;;;8.30;1.73;;;6.50;99.90;;;;;;5034983;28;20166;-79
2022/01/06 04:33:11;;;;;;;3.67;1.77;;;6.40;99.90;;;;;;5035046;28;20162;-78
2022/01/06 04:35:37;;;;;;;4.07;2.00;;;6.40;99.90;;;;;;5035309;28;20181;-78
2022/01/06 04:38:03;;;;;;;3.83;2.00;;;6.40;99.90;;;;;;5017470;28;20567;-79
2022/01/06 04:40:29;;;;;;;7.20;1.47;;;6.40;99.90;;;;;;5017076;28;20622;-78
2022/01/06 04:42:54;;;;;;;5.90;2.87;;;6.40;99.90;;;;;;5017363;28;20584;-78
2022/01/06 04:45:20;;;;;;;9.33;2.43;;;6.40;99.90;;;;;;5035016;28;20859;-78
2022/01/06 04:47:46;;;;;;;8.57;3.93;;;6.40;99.90;;;;;;5034835;28;20229;-78
2022/01/06 04:50:12;;;;;;;11.20;2.50;;;6.30;99.90;;;;;;5034582;28;20172;-79
2022/01/06 04:52:37;;;;;;;9.47;1.90;;;6.30;99.90;;;;;;5017215;28;20170;-79
2022/01/06 04:55:04;;;;;;;5.80;1.70;;;6.30;99.90;;;;;;5034769;28;20937;-79
2022/01/06 04:57:30;;;;;;;9.60;2.40;;;6.30;99.90;;;;;;5034762;28;20200;-79
2022/01/06 04:59:56;;;;;;;7.20;1.70;;;6.30;99.90;;;;;;5034552;28;20169;-78
2022/01/06 05:02:22;;;;;;;7.30;1.80;;;6.30;99.90;;;;;;5035030;28;20170;-79
2022/01/06 05:04:47;;;;;;;5.87;2.07;;;6.30;99.90;;;;;;5037163;28;20162;-78
2022/01/06 05:07:13;;;;;;;9.93;2.50;;;6.20;99.90;;;;;;5034376;28;20271;-78
2022/01/06 05:09:39;;;;;;;6.10;2.20;;;6.20;99.90;;;;;;5034427;28;20558;-78
2022/01/06 05:12:05;;;;;;;4.03;1.63;;;6.20;99.90;;;;;;5016994;28;20741;-78
2022/01/06 05:14:31;;;;;;;6.70;1.67;;;6.20;99.90;;;;;;5034437;28;20676;-78
2022/01/06 05:16:56;;;;;;;8.90;2.20;;;6.10;99.90;;;;;;5034299;28;20252;-78
2022/01/06 05:19:23;;;;;;;6.97;2.30;;;6.10;99.90;;;;;;5034401;28;20560;-78
2022/01/06 05:21:51;;;;;;;4.25;1.63;;;6.10;99.90;;;;;;5033985;28;20277;-78
2022/01/06 05:24:17;;;;;;;6.30;1.55;;;6.00;99.90;;;;;;5016566;28;20224;-78
2022/01/06 05:26:44;;;;;;;6.18;2.03;;;6.00;99.90;;;;;;5015535;28;20237;-79
2022/01/06 05:29:12;;;;;;;8.80;2.60;;;5.90;99.90;;;;;;5034179;28;20228;-79
2022/01/06 05:31:38;;;;;;;4.38;1.88;;;5.90;99.90;;;;;;5033696;28;20599;-79
2022/01/06 05:34:04;;;;;;;8.50;2.00;;;5.90;99.90;;;;;;5034417;28;20216;-78
2022/01/06 05:36:30;;;;;;;6.32;2.10;;;5.80;99.90;;;;;;5033979;28;20166;-78
2022/01/06 05:38:56;;;;;;;6.60;2.15;;;5.80;99.90;;;;;;5034417;28;20186;-80
2022/01/06 05:41:22;;;;;;;6.40;1.70;;;5.80;99.90;;;;;;5019460;28;20170;-79
2022/01/06 05:43:49;;;;;;;4.13;1.50;;;5.80;99.90;;;;;;5033998;28;20565;-79
2022/01/06 05:46:19;;;;;;;12.07;2.70;;;5.80;99.90;;;;;;5033794;28;20205;-79
2022/01/06 05:48:45;;;;;;;6.05;2.08;;;5.80;99.90;;;;;;5016028;28;20274;-79
2022/01/06 05:51:12;;;;;;;5.50;2.28;;;5.90;99.90;;;;;;5015748;28;20177;-79
2022/01/06 05:53:38;;;;;;;10.18;2.33;;;5.90;99.90;;;;;;5033836;28;20162;-79
2022/01/06 05:56:04;;;;;;;6.70;1.50;;;5.90;99.90;;;;;;5016089;28;20170;-79
2022/01/06 05:58:30;;;;;;;5.78;1.38;;;5.90;99.90;;;;;;5033791;28;20612;-79
2022/01/06 06:00:56;;;;;;;9.50;2.20;;;5.90;99.90;;;;;;5033489;28;20181;-79
2022/01/06 06:03:22;;;;;;;9.43;2.53;;;5.90;99.90;;;;;;5033662;28;20633;-79
2022/01/06 06:05:48;;;;;;;5.43;2.07;;;5.90;99.90;;;;;;5033415;28;21262;-79
2022/01/06 06:08:14;;;;;;;10.80;2.93;;;5.90;99.90;;;;;;4999286;28;20603;-79
2022/01/06 06:10:40;;;;;;;4.20;2.33;;;6.00;99.90;;;;;;5033205;28;20603;-79
2022/01/06 06:13:06;;;;;;;10.37;2.90;;;6.00;99.90;;;;;;5033353;28;20626;-79
2022/01/06 06:15:35;;;;;;;6.07;2.00;;;6.00;99.90;;;;;;5015751;28;20258;-79
2022/01/06 06:18:05;;;;;;;6.75;3.13;;;6.00;99.90;;;;;;5036101;28;20596;-78
2022/01/06 06:20:31;;;;;;;5.05;2.33;;;6.00;99.90;;;;;;5015462;28;20166;-78
2022/01/06 06:22:58;;;;;;;11.20;2.15;;;6.00;99.90;;;;;;5033190;28;20193;-79
2022/01/06 06:25:24;;;;;;;5.05;1.90;;;6.00;99.90;;;;;;5015767;28;20177;-78
2022/01/06 06:27:50;;;;;;;7.85;1.90;;;6.00;99.90;;;;;;5033154;28;20204;-78
2022/01/06 06:30:16;;;;;;;5.20;1.60;;;5.90;99.90;;;;;;5032934;28;20527;-79
2022/01/06 06:32:42;;;;;;;9.40;2.00;;;5.90;99.90;;;;;;5016385;28;20986;-79
2022/01/06 06:35:08;;;;;;;9.70;2.20;;;5.80;99.90;;;;;;5016340;28;20577;-80
2022/01/06 06:37:34;;;;;;;8.73;1.90;;;5.80;99.90;;;;;;4998974;28;20684;-80
2022/01/06 06:40:00;;;;;;;9.60;2.10;;;5.70;99.90;;;;;;5032840;28;20177;-80
2022/01/06 06:42:28;;;;;;;9.45;2.20;;;5.70;99.90;;;;;;5032359;28;20924;-85
2022/01/06 06:44:54;;;;;;;6.13;2.10;;;5.70;99.90;;;;;;5035172;28;20186;-83
2022/01/06 06:47:20;;;;;;;10.32;1.95;;;5.70;99.90;;;;;;5018547;28;20300;-86
2022/01/06 06:49:46;;;;;;;6.33;2.17;;;5.70;99.90;;;;;;5018684;28;20201;-85
2022/01/06 06:52:12;;;;;;;10.68;3.45;;;5.60;99.90;;;;;;5036675;28;20261;-83
2022/01/06 06:54:38;;;;;;;8.77;2.13;;;5.60;99.90;;;;;;5039400;28;20578;-83
2022/01/06 06:57:04;;;;;;;7.47;2.80;;;5.60;99.90;;;;;;5036237;28;20188;-83
2022/01/06 06:59:30;;;;;;;8.60;2.53;;;5.50;99.90;;;;;;5016097;28;20182;-84
2022/01/06 07:01:56;;;;;;;7.77;2.27;;;5.50;99.90;;;;;;5033370;28;20664;-84
2022/01/06 07:04:22;;;;;;;7.13;3.10;;;5.50;99.90;;;;;;5034019;28;20390;-83
2022/01/06 07:06:47;;;;;;;7.23;2.70;;;5.40;99.90;;;;;;5034964;28;20201;-83
2022/01/06 07:09:13;;;;;;;9.40;3.30;;;5.40;99.90;;;;;;5035003;28;20547;-83
2022/01/06 07:11:39;;;;;;;6.50;2.13;;;5.40;99.90;;;;;;5015166;28;20643;-81
2022/01/06 07:14:04;;;;;;;12.00;2.83;;;5.30;99.90;;;;;;5033130;28;20173;-82
2022/01/06 07:16:30;;;;;;;10.57;2.70;;;5.30;99.90;;;;;;5032937;28;20559;-82
2022/01/06 07:18:56;;;;;;;6.03;3.60;;;5.30;99.90;;;;;;5015674;28;20948;-83
2022/01/06 07:21:22;;;;;;;10.43;3.20;;;5.30;99.90;;;;;;5033618;28;20166;-83
2022/01/06 07:23:47;;;;;;;8.77;3.37;;;5.30;99.90;;;;;;5033747;28;20190;-83
2022/01/06 07:26:13;;;;;;;6.27;3.67;;;5.40;99.90;;;;;;5033547;28;20609;-83
2022/01/06 07:28:39;;;;;;;5.60;2.80;;;5.40;99.90;;;;;;5034860;28;20201;-83
2022/01/06 07:31:04;;;;;;;9.53;2.70;;;5.50;99.90;;;;;;5017077;28;20169;-82
2022/01/06 07:33:31;;;;;;;6.80;2.40;;;5.50;99.90;;;;;;5034322;28;20168;-82
2022/01/06 07:35:57;;;;;;;10.75;3.00;;;5.50;99.90;;;;;;5017192;28;20173;-83
2022/01/06 07:38:24;;;;;;;7.80;3.33;;;5.60;99.90;;;;;;5016332;28;20273;-83
2022/01/06 07:40:50;;;;;;;8.98;3.60;;;5.60;99.90;;;;;;5015347;28;20571;-83
2022/01/06 07:43:16;;;;;;;6.43;2.90;;;5.60;99.90;;;;;;5046051;28;20174;-80
2022/01/06 07:45:41;;;;;;;8.20;3.63;;;5.60;99.90;;;;;;5042071;28;21147;-81
2022/01/06 07:48:16;;;;;;;8.00;3.40;;;5.70;99.90;;;;;;5032988;28;20193;-81
2022/01/06 07:50:43;;;;;;;13.15;4.50;;;5.70;99.90;;;;;;5014081;28;20295;-81
2022/01/06 07:53:09;;;;;;;7.60;4.55;;;5.70;99.90;;;;;;5032873;28;20188;-80
2022/01/06 07:55:35;;;;;;;6.80;3.60;;;5.70;99.90;;;;;;5015758;28;20169;-81
2022/01/06 07:58:01;;;;;;;8.07;3.50;;;5.70;99.90;;;;;;5015343;28;21263;-81
2022/01/06 08:00:26;;;;;;;9.82;3.85;;;5.70;99.90;;;;;;5016260;28;20261;-81
2022/01/06 08:02:52;;;;;;;7.93;3.50;;;5.70;99.90;;;;;;5021750;28;20161;-81
2022/01/06 08:05:22;;;;;;;9.87;3.50;;;5.80;99.90;;;;;;5041560;28;20668;-79
2022/01/06 08:07:47;;;;;;;9.55;3.20;;;5.80;99.90;;;;;;5043706;28;20627;-78
2022/01/06 08:10:14;;;;;;;11.53;3.70;;;5.80;99.90;;;;;;5042417;28;20169;-80
2022/01/06 08:12:40;;;;;;;8.07;4.05;;;5.80;99.90;;;;;;5026359;28;20576;-79
2022/01/06 08:15:06;;;;;;;10.38;3.40;;;5.90;99.90;;;;;;5021437;28;20166;-78
2022/01/06 08:17:33;;;;;;;8.55;3.60;;;5.90;99.90;;;;;;5037469;28;20254;-79
2022/01/06 08:19:58;;;;;;;14.48;4.22;;;6.00;99.90;;;;;;5039153;28;20220;-79
2022/01/06 08:22:24;;;;;;;11.93;4.23;;;6.00;99.90;;;;;;5051172;28;20176;-78
2022/01/06 08:24:52;;;;;;;10.77;4.40;;;6.00;99.90;;;;;;5052317;28;20608;-78
2022/01/06 08:27:18;;;;;;;14.63;3.67;;;6.10;99.90;;;;;;5047336;28;20623;-78
2022/01/06 08:29:44;;;;;;;9.52;4.15;;;6.10;99.90;;;;;;5042184;28;20301;-78
2022/01/06 08:32:10;;;;;;;5.73;3.60;;;6.20;99.90;;;;;;5044583;28;20174;-79
2022/01/06 08:34:36;;;;;;;8.40;3.70;;;6.20;99.90;;;;;;5045302;28;20579;-79
2022/01/06 08:37:02;;;;;;;8.70;4.32;;;6.20;99.90;;;;;;5042230;28;20170;-78
2022/01/06 08:39:28;;;;;;;8.00;4.88;;;6.30;99.90;;;;;;5043604;28;20190;-79
2022/01/06 08:41:54;;;;;;;10.93;4.30;;;6.30;99.90;;;;;;5031238;28;20231;-80
2022/01/06 08:44:21;;;;;;;12.93;5.70;;;6.40;99.90;;;;;;5049437;28;20170;-79
2022/01/06 08:46:48;;;;;;;9.88;4.75;;;6.40;99.90;;;;;;5049422;28;20616;-80
2022/01/06 08:49:15;;;;;;;10.02;4.70;;;6.50;99.90;;;;;;5029557;28;20193;-81
2022/01/06 08:51:41;;;;;;;11.35;5.25;;;6.60;99.90;;;;;;5043738;28;20170;-82
2022/01/06 08:54:07;;;;;;;8.07;5.03;;;6.70;99.90;;;;;;5020530;28;20173;-83
2022/01/06 08:56:35;;;;;;;10.90;5.07;;;6.80;99.90;;;;;;5044790;28;20170;-80
2022/01/06 08:59:01;;;;;;;14.38;5.70;;;6.80;99.90;;;;;;5020203;28;20275;-81
2022/01/06 09:01:27;;;;;;;13.55;5.40;;;7.00;99.90;;;;;;5035638;28;20318;-81
2022/01/06 09:03:53;;;;;;;11.80;5.65;;;7.10;99.90;;;;;;5021632;28;20165;-82
2022/01/06 09:06:20;;;;;;;12.10;4.97;;;7.20;99.90;;;;;;5039310;28;20223;-82
2022/01/06 09:08:46;;;;;;;12.18;5.25;;;7.30;99.90;;;;;;5040816;28;20244;-81
2022/01/06 09:11:12;;;;;;;12.68;5.05;;;7.40;99.90;;;;;;5021994;28;20633;-81
2022/01/06 09:13:38;;;;;;;8.00;4.90;;;7.50;99.90;;;;;;5043720;28;20170;-80
2022/01/06 09:16:08;;;;;;;11.63;4.75;;;7.50;99.90;;;;;;5039227;28;20581;-81
2022/01/06 09:18:37;;;;;;;10.07;4.07;;;7.60;99.90;;;;;;5040320;28;20272;-81
2022/01/06 09:21:04;;;;;;;6.32;3.65;;;7.60;99.90;;;;;;5022304;28;20185;-80
2022/01/06 09:23:30;;;;;;;10.98;3.90;;;7.70;99.90;;;;;;5045036;28;20170;-80
2022/01/06 09:25:56;;;;;;;9.93;3.63;;;7.80;99.90;;;;;;5045222;28;20201;-79
2022/01/06 09:28:21;;;;;;;13.97;4.80;;;7.80;99.90;;;;;;5039111;28;20635;-80
2022/01/06 09:30:50;;;;;;;8.50;4.03;;;7.80;99.90;;;;;;5035445;28;20169;-80
2022/01/06 09:33:18;;;;;;;8.82;4.20;;;7.80;99.90;;;;;;5041555;28;20173;-81
2022/01/06 09:35:44;;;;;;;8.93;4.22;;;7.80;99.90;;;;;;5039547;28;20766;-81
2022/01/06 09:38:10;;;;;;;9.00;4.82;;;7.80;99.90;;;;;;5041324;28;20189;-81
2022/01/06 09:40:39;;;;;;;9.20;4.33;;;7.70;99.90;;;;;;5037882;28;20254;-80
2022/01/06 09:43:04;;;;;;;10.05;3.97;;;7.70;99.90;;;;;;5037959;28;20930;-80
2022/01/06 09:45:32;;;;;;;14.27;4.17;;;7.70;99.90;;;;;;5021652;28;20166;-80
2022/01/06 09:47:58;;;;;;;6.57;3.83;;;7.70;99.90;;;;;;5043611;28;20190;-81
2022/01/06 09:50:24;;;;;;;12.70;6.40;;;7.70;99.90;;;;;;5041892;28;20695;-81
2022/01/06 09:52:51;;;;;;;8.20;5.07;;;7.50;99.90;;;;;;5043110;28;20170;-81
2022/01/06 09:55:17;;;;;;;12.52;4.13;;;7.50;99.90;;;;;;5025248;28;20192;-79
2022/01/06 09:57:59;;;;;;;9.60;4.30;;;7.60;99.90;;;;;;5044539;28;20186;-81
2022/01/06 10:00:26;;;;;;;11.88;4.22;;;7.60;99.90;;;;;;5039538;28;20174;-81
2022/01/06 10:02:55;;;;;;;8.93;3.72;;;7.70;99.90;;;;;;5040039;28;20197;-81
2022/01/06 10:05:21;;;;;;;12.05;4.40;;;7.80;99.90;;;;;;5022606;28;20188;-82
2022/01/06 10:07:47;;;;;;;10.00;4.70;;;7.80;99.90;;;;;;5008400;28;20200;-82
2022/01/06 10:10:14;;;;;;;6.00;4.20;;;7.90;99.90;;;;;;5025109;28;20212;-82
2022/01/06 10:12:41;;;;;;;7.43;3.58;;;7.90;99.90;;;;;;5021163;28;20610;-81
2022/01/06 10:15:18;;;;;;;6.47;3.75;;;8.00;99.90;;;;;;5037141;28;20204;-81
2022/01/06 10:17:45;;;;;;;9.05;5.05;;;8.10;99.90;;;;;;5035656;28;20200;-82
2022/01/06 10:20:17;;;;;;;11.73;4.68;;;8.10;99.90;;;;;;5034861;28;20178;-81
2022/01/06 10:22:49;;;;;;;14.65;4.28;;;8.20;99.90;;;;;;5033665;28;20201;-81
2022/01/06 10:25:16;;;;;;;8.40;4.45;;;8.30;99.90;;;;;;5033632;28;20627;-81
2022/01/06 10:27:44;;;;;;;15.05;5.18;;;8.40;99.90;;;;;;5015706;28;20261;-80
2022/01/06 10:30:11;;;;;;;6.93;4.20;;;8.50;99.90;;;;;;5034080;28;20170;-80
2022/01/06 10:32:38;;;;;;;12.70;4.70;;;8.50;99.90;;;;;;5038413;28;20201;-82
2022/01/06 10:35:05;;;;;;;11.85;4.90;;;8.60;99.90;;;;;;5035080;28;20162;-81
2022/01/06 10:37:40;;;;;;;12.05;6.03;;;8.70;99.90;;;;;;5017959;28;20197;-82
2022/01/06 10:40:10;;;;;;;10.63;5.65;;;8.70;99.90;;;;;;5033952;28;20261;-81
2022/01/06 10:42:38;;;;;;;10.13;4.75;;;8.70;99.90;;;;;;5033416;28;20254;-81
2022/01/06 10:45:10;;;;;;;12.73;5.38;;;8.80;99.90;;;;;;5037806;28;20516;-81
2022/01/06 10:47:48;;;;;;;6.50;3.90;;;8.80;99.90;;;;;;5039196;28;20204;-81
2022/01/06 10:50:16;;;;;;;12.82;4.90;;;8.80;99.90;;;;;;5038633;28;20166;-80
2022/01/06 10:52:48;;;;;;;11.23;5.75;;;8.90;99.90;;;;;;5037760;28;20778;-77
2022/01/06 10:55:20;;;;;;;8.23;5.25;;;8.90;99.90;;;;;;5047182;28;20180;-80
2022/01/06 10:58:00;;;;;;;15.35;5.25;;;8.90;99.90;;;;;;5050208;28;20224;-80
2022/01/06 11:00:36;;;;;;;11.05;4.93;;;8.90;99.90;;;;;;5040343;28;20212;-79
2022/01/06 11:03:25;;;;;;;11.25;5.20;;;8.90;99.90;;;;;;5043141;28;20173;-80
2022/01/06 11:05:53;;;;;;;12.80;5.15;;;8.90;99.90;;;;;;5038101;28;20208;-82
2022/01/06 11:08:28;;;;;;;8.43;4.88;;;8.90;99.90;;;;;;5040375;28;20190;-81
2022/01/06 11:13:33;;;;;;;11.75;4.88;;;8.90;99.90;;;;;;5039425;28;20174;-82
2022/01/06 11:15:59;;;;;;;10.52;4.70;;;8.90;99.90;;;;;;5017648;28;20174;-81
2022/01/06 11:18:25;;;;;;;11.80;5.03;;;8.90;99.90;;;;;;5034832;28;20216;-81
2022/01/06 11:21:03;;;;;;;8.95;5.30;;;8.80;99.90;;;;;;5033869;28;20177;-82
2022/01/06 11:23:31;;;;;;;11.32;6.82;;;8.80;99.90;;;;;;5033634;28;20185;-82
2022/01/06 11:26:04;;;;;;;11.20;6.22;;;8.80;99.90;;;;;;5035934;28;20312;-83
2022/01/06 11:28:31;;;;;;;12.80;5.90;;;8.80;99.90;;;;;;5016266;28;20314;-84
2022/01/06 11:30:57;;;;;;;11.57;6.35;;;8.70;99.90;;;;;;5016269;28;20166;-81
2022/01/06 11:33:23;;;;;;;13.02;6.82;;;8.80;99.90;;;;;;5033294;28;20177;-82
2022/01/06 11:35:55;;;;;;;11.02;5.80;;;8.80;99.90;;;;;;5017179;28;20173;-81
2022/01/06 11:38:26;;;;;;;9.98;5.40;;;8.90;99.90;;;;;;5042804;28;20276;-77
2022/01/06 11:41:06;;;;;;;11.40;5.40;;;9.00;99.90;;;;;;5034073;28;20172;-78
2022/01/06 11:43:40;;;;;;;10.25;5.85;;;9.10;99.90;;;;;;5051420;28;20180;-78
2022/01/06 11:46:07;;;;;;;11.77;6.50;;;9.20;99.90;;;;;;5050536;28;20201;-77
2022/01/06 11:48:43;;;;;;;8.57;4.90;;;9.30;99.90;;;;;;5046079;28;20216;-78
2022/01/06 11:51:09;;;;;;;13.50;6.10;;;9.50;99.90;;;;;;5041788;28;20339;-76
2022/01/06 11:53:35;;;;;;;9.87;4.93;;;9.60;99.90;;;;;;5055606;28;20176;-77
2022/01/06 11:56:13;;;;;;;10.80;5.33;;;9.70;99.90;;;;;;5036394;28;20627;-77
2022/01/06 11:58:38;;;;;;;15.25;5.45;;;9.80;99.90;;;;;;5014407;28;20204;-76
2022/01/06 12:01:07;;;;;;;12.43;6.60;;;10.00;99.90;;;;;;5013500;28;20170;-77
2022/01/06 12:03:51;;;;;;;15.27;5.85;;;10.20;99.90;;;;;;5031692;28;20177;-77
2022/01/06 12:06:24;;;;;;;9.55;4.97;;;10.30;99.90;;;;;;5013295;28;20232;-77
2022/01/06 12:08:50;;;;;;;7.50;5.00;;;10.50;99.90;;;;;;5030919;28;20196;-77
2022/01/06 12:11:23;;;;;;;10.13;4.77;;;10.60;99.90;;;;;;4996940;28;20177;-77
2022/01/06 12:13:50;;;;;;;9.60;5.20;;;10.60;99.90;;;;;;5032499;28;20169;-78
2022/01/06 12:16:25;;;;;;;11.05;6.10;;;10.60;99.90;;;;;;5012714;28;20701;-76
2022/01/06 12:18:50;;;;;;;11.80;5.45;;;10.50;99.90;;;;;;5017431;28;20195;-78
2022/01/06 12:21:17;;;;;;;11.10;5.30;;;10.50;99.90;;;;;;5030969;28;20789;-79
2022/01/06 12:23:44;;;;;;;10.85;5.53;;;10.40;99.90;;;;;;5032350;28;20180;-79
2022/01/06 12:26:12;;;;;;;9.60;4.65;;;10.40;99.90;;;;;;5031786;28;20206;-78
2022/01/06 12:28:47;;;;;;;7.68;4.22;;;10.40;99.90;;;;;;5031257;28;20225;-79
2022/01/06 12:31:23;;;;;;;8.63;4.70;;;10.40;99.90;;;;;;5012837;28;20272;-78
2022/01/06 12:33:51;;;;;;;12.52;4.78;;;10.40;99.90;;;;;;5014397;28;20245;-78
2022/01/06 12:36:18;;;;;;;7.80;4.93;;;10.40;99.90;;;;;;5034507;28;20304;-77
2022/01/06 12:38:45;;;;;;;10.15;4.15;;;10.50;99.90;;;;;;5036214;28;20185;-79
2022/01/06 12:41:11;;;;;;;8.35;4.60;;;10.60;99.90;;;;;;5035681;28;20589;-78
2022/01/06 12:43:41;;;;;;;8.50;4.90;;;10.70;99.90;;;;;;5001227;28;20177;-78
2022/01/06 12:46:09;;;;;;;14.30;6.30;;;10.90;99.90;;;;;;5035127;28;20190;-78
2022/01/06 12:48:44;;;;;;;10.73;5.90;;;11.10;99.90;;;;;;5017536;28;20185;-78
2022/01/06 12:51:12;;;;;;;15.07;4.57;;;11.30;99.90;;;;;;5020548;28;20177;-77
2022/01/06 12:53:44;;;;;;;9.80;4.68;;;11.40;99.90;;;;;;5052102;22;20217;-78
2022/01/06 12:56:33;;;;;;;7.95;4.50;;;11.60;99.90;;;;;;4999791;28;20181;-78
2022/01/06 12:59:01;;;;;;;6.90;3.92;;;11.70;99.90;;;;;;5011960;28;20166;-78
2022/01/06 13:01:31;;;;;;;8.55;4.78;;;11.90;99.90;;;;;;5033815;28;20173;-78
2022/01/06 13:03:57;;;;;;;7.63;3.90;;;12.00;99.90;;;;;;5018885;28;20617;-76
2022/01/06 13:06:28;;;;;;;9.50;4.32;;;12.10;99.90;;;;;;5036192;28;20264;-76